Time;durP1;ratioP1;P1;durP2;ratioP2;P2;SDS_P1;SDS_P2;PMS_P1;PMS_P2;Temp;Humidity;BMP_temperature;BMP_pressure;BME280_temperature;BME280_humidity;BME280_pressure;Samples;Min_cycle;Max_cycle;Signal;HPM_P1;HPM_P2
2022/06/26 00:01:20;;;;;;;1.60;1.45;;;24.30;80.30;;;;;;4935240;29;20024;-77
2022/06/26 00:03:46;;;;;;;1.52;1.42;;;24.20;80.60;;;;;;4935473;29;20110;-76
2022/06/26 00:06:12;;;;;;;5.25;1.65;;;24.10;80.90;;;;;;4935362;29;20020;-77
2022/06/26 00:08:38;;;;;;;8.07;2.03;;;24.20;81.10;;;;;;4919563;29;20036;-77
2022/06/26 00:11:04;;;;;;;1.73;1.63;;;24.20;81.00;;;;;;4915130;29;20115;-77
2022/06/26 00:13:30;;;;;;;1.65;1.55;;;24.10;81.40;;;;;;4915206;29;20086;-77
2022/06/26 00:16:00;;;;;;;2.22;1.63;;;24.20;81.60;;;;;;4916525;29;20031;-77
2022/06/26 00:18:26;;;;;;;3.88;1.92;;;24.20;81.60;;;;;;4899320;29;20043;-77
2022/06/26 00:20:51;;;;;;;1.55;1.23;;;24.10;81.90;;;;;;4916413;29;20020;-77
2022/06/26 00:23:17;;;;;;;2.55;1.48;;;24.10;82.10;;;;;;4899251;29;20044;-77
2022/06/26 00:25:43;;;;;;;1.55;1.45;;;24.10;82.40;;;;;;4899437;29;20039;-77
2022/06/26 00:28:09;;;;;;;1.83;1.55;;;24.00;82.50;;;;;;4916202;29;20055;-77
2022/06/26 00:30:34;;;;;;;2.80;1.48;;;24.10;82.80;;;;;;4899327;29;20035;-76
2022/06/26 00:33:00;;;;;;;2.78;1.63;;;24.10;82.30;;;;;;4916501;29;20035;-76
2022/06/26 00:35:26;;;;;;;2.33;1.58;;;24.20;82.30;;;;;;4919150;29;20049;-77
2022/06/26 00:37:52;;;;;;;3.38;1.77;;;24.20;82.10;;;;;;4927690;29;20031;-76
2022/06/26 00:40:17;;;;;;;2.38;2.17;;;24.20;82.40;;;;;;4957147;28;20043;-77
2022/06/26 00:42:43;;;;;;;5.68;1.48;;;24.20;82.70;;;;;;4957834;29;20027;-77
2022/06/26 00:45:09;;;;;;;1.73;1.55;;;24.20;82.80;;;;;;4956391;29;20035;-76
2022/06/26 00:47:35;;;;;;;3.08;1.55;;;24.20;83.00;;;;;;4940478;29;20067;-77
2022/06/26 00:50:02;;;;;;;2.85;1.42;;;24.00;84.20;;;;;;4957797;29;20023;-77
2022/06/26 00:52:28;;;;;;;1.52;1.40;;;24.00;83.60;;;;;;4940245;29;20032;-77
2022/06/26 00:54:55;;;;;;;3.58;1.67;;;24.00;84.10;;;;;;4957737;29;20062;-77
2022/06/26 00:57:21;;;;;;;5.15;1.83;;;24.00;84.30;;;;;;4957494;29;20445;-77
2022/06/26 00:59:48;;;;;;;2.38;1.67;;;23.90;84.50;;;;;;4940075;29;20493;-77
2022/06/26 01:02:15;;;;;;;3.20;1.73;;;24.00;84.60;;;;;;4940262;29;20059;-77
2022/06/26 01:04:41;;;;;;;2.28;1.70;;;24.00;84.60;;;;;;4957519;29;20485;-77
2022/06/26 01:07:07;;;;;;;1.48;1.35;;;24.00;84.70;;;;;;4953664;29;20028;-77
2022/06/26 01:09:34;;;;;;;2.42;1.77;;;24.00;84.90;;;;;;4938292;29;20024;-77
2022/06/26 01:12:00;;;;;;;3.17;1.85;;;23.90;85.40;;;;;;4938095;29;20163;-76
2022/06/26 01:14:26;;;;;;;1.85;1.65;;;23.90;85.70;;;;;;4920878;29;20115;-76
2022/06/26 01:16:55;;;;;;;4.55;1.77;;;23.80;86.50;;;;;;4938042;29;20036;-76
2022/06/26 01:19:21;;;;;;;4.18;1.60;;;23.70;86.90;;;;;;4938193;29;20567;-77
2022/06/26 01:21:50;;;;;;;2.53;1.48;;;23.70;87.10;;;;;;4937835;29;20478;-77
2022/06/26 01:24:16;;;;;;;2.55;2.17;;;23.70;87.50;;;;;;4937663;29;20032;-77
2022/06/26 01:26:42;;;;;;;2.67;2.13;;;23.70;87.70;;;;;;4920774;29;20030;-77
2022/06/26 01:29:08;;;;;;;2.80;1.52;;;23.80;87.60;;;;;;4937652;29;20032;-77
2022/06/26 01:31:34;;;;;;;2.33;1.65;;;23.70;88.90;;;;;;4937921;29;20089;-77
2022/06/26 01:34:06;;;;;;;3.03;2.15;;;23.60;89.30;;;;;;4937741;29;20098;-77
2022/06/26 01:36:32;;;;;;;11.15;1.90;;;23.70;88.80;;;;;;4937629;29;20413;-77
2022/06/26 01:38:58;;;;;;;1.75;1.40;;;23.60;89.00;;;;;;4955996;29;20106;-77
2022/06/26 01:41:25;;;;;;;1.58;1.48;;;23.60;89.10;;;;;;4939396;29;20481;-77
2022/06/26 01:43:51;;;;;;;2.70;1.60;;;23.60;89.30;;;;;;4939593;29;20397;-77
2022/06/26 01:46:17;;;;;;;1.98;1.77;;;23.60;89.60;;;;;;4955550;29;20490;-77
2022/06/26 01:48:43;;;;;;;6.10;1.50;;;23.50;90.10;;;;;;4956462;29;20071;-77
2022/06/26 01:51:09;;;;;;;3.42;1.90;;;23.50;90.20;;;;;;4955917;28;20034;-76
2022/06/26 01:53:36;;;;;;;3.83;1.73;;;23.50;90.30;;;;;;4939136;29;20496;-77
2022/06/26 01:56:03;;;;;;;3.92;1.60;;;23.60;90.20;;;;;;4956465;29;20049;-76
2022/06/26 01:58:28;;;;;;;3.08;1.45;;;23.60;90.20;;;;;;4956449;29;20130;-76
2022/06/26 02:00:54;;;;;;;1.65;1.55;;;23.70;90.10;;;;;;4956479;29;20541;-77
2022/06/26 02:03:21;;;;;;;3.58;2.05;;;23.70;90.50;;;;;;4956266;29;20036;-77
2022/06/26 02:05:47;;;;;;;2.78;1.77;;;23.70;90.20;;;;;;4956485;29;20466;-76
2022/06/26 02:08:13;;;;;;;2.22;2.03;;;23.60;90.40;;;;;;4943820;29;20031;-76
2022/06/26 02:13:36;;;;;;;2.00;1.85;;;23.60;90.60;;;;;;4937260;29;20042;-77
2022/06/26 02:16:10;;;;;;;2.13;2.00;;;23.60;90.70;;;;;;4952252;28;20098;-77
2022/06/26 02:18:41;;;;;;;4.90;1.63;;;23.60;90.80;;;;;;4919632;29;20134;-76
2022/06/26 02:21:09;;;;;;;1.83;1.73;;;23.50;91.00;;;;;;4916854;29;20475;-76
2022/06/26 02:23:36;;;;;;;4.45;1.90;;;23.50;91.10;;;;;;4935786;29;20553;-77
2022/06/26 02:26:03;;;;;;;1.65;1.50;;;23.50;91.10;;;;;;4919079;29;20478;-76
2022/06/26 02:28:29;;;;;;;2.33;1.48;;;23.50;91.20;;;;;;4936427;29;20024;-76
2022/06/26 02:30:56;;;;;;;3.08;1.80;;;23.50;91.20;;;;;;4936333;29;20020;-76
2022/06/26 02:33:22;;;;;;;2.65;1.90;;;23.60;91.30;;;;;;4919563;29;20020;-78
2022/06/26 02:35:49;;;;;;;3.33;2.00;;;23.60;91.40;;;;;;4936570;29;20051;-76
2022/06/26 02:38:18;;;;;;;2.10;1.88;;;23.50;91.70;;;;;;4949211;29;20106;-77
2022/06/26 02:40:44;;;;;;;1.40;1.33;;;23.40;91.80;;;;;;4955654;29;20493;-77
2022/06/26 02:43:10;;;;;;;3.42;1.70;;;23.50;91.90;;;;;;4954479;29;20105;-76
2022/06/26 02:45:36;;;;;;;3.03;1.83;;;23.50;92.00;;;;;;4955472;29;20027;-77
2022/06/26 02:48:02;;;;;;;2.35;1.83;;;23.50;92.10;;;;;;4955218;29;20023;-76
2022/06/26 02:50:28;;;;;;;1.70;1.60;;;23.50;92.10;;;;;;4955395;29;20019;-77
2022/06/26 02:52:53;;;;;;;4.05;1.67;;;23.50;92.20;;;;;;4949360;29;20120;-77
2022/06/26 02:55:19;;;;;;;3.78;1.60;;;23.40;92.20;;;;;;4936065;29;20500;-77
2022/06/26 02:57:45;;;;;;;2.08;1.65;;;23.50;92.20;;;;;;4937331;29;20031;-77
2022/06/26 03:00:13;;;;;;;4.80;1.77;;;23.40;92.30;;;;;;4934631;29;20370;-77
2022/06/26 03:02:38;;;;;;;1.70;1.60;;;23.50;92.30;;;;;;4935652;29;20028;-76
2022/06/26 03:05:05;;;;;;;3.28;1.70;;;23.50;92.30;;;;;;4934748;29;20023;-77
2022/06/26 03:07:31;;;;;;;2.22;1.70;;;23.50;92.20;;;;;;4942417;29;20114;-77
2022/06/26 03:09:56;;;;;;;4.65;1.73;;;23.50;92.10;;;;;;4945587;29;20111;-76
2022/06/26 03:12:22;;;;;;;1.75;1.65;;;23.50;92.20;;;;;;4935320;29;20032;-77
2022/06/26 03:14:48;;;;;;;4.53;1.77;;;23.60;92.20;;;;;;4935913;29;20019;-77
2022/06/26 03:17:15;;;;;;;2.30;1.58;;;23.60;92.30;;;;;;4935677;29;20024;-76
2022/06/26 03:19:41;;;;;;;3.15;1.70;;;23.60;92.30;;;;;;4918764;29;20379;-76
2022/06/26 03:22:07;;;;;;;7.13;1.80;;;23.60;92.30;;;;;;4935927;29;20106;-77
2022/06/26 03:24:33;;;;;;;2.97;1.67;;;23.60;92.50;;;;;;4935959;29;20059;-77
2022/06/26 03:26:59;;;;;;;1.85;1.58;;;23.60;92.40;;;;;;4917899;29;20043;-76
2022/06/26 03:29:24;;;;;;;1.83;1.73;;;23.50;92.60;;;;;;4935082;29;20020;-77
2022/06/26 03:31:50;;;;;;;4.07;2.08;;;23.60;92.60;;;;;;4934982;29;20062;-78
2022/06/26 03:34:16;;;;;;;2.22;2.03;;;23.50;92.60;;;;;;4935000;29;20026;-77
2022/06/26 03:36:42;;;;;;;3.97;1.60;;;23.50;92.80;;;;;;4918098;29;20409;-77
2022/06/26 03:39:08;;;;;;;1.88;1.65;;;23.40;92.90;;;;;;4954177;29;20030;-77
2022/06/26 03:41:33;;;;;;;4.22;1.70;;;23.40;93.30;;;;;;4954179;29;20027;-77
2022/06/26 03:43:59;;;;;;;2.03;1.83;;;23.40;93.30;;;;;;4954307;29;20031;-77
2022/06/26 03:46:25;;;;;;;2.70;1.98;;;23.40;93.50;;;;;;4954015;29;20110;-76
2022/06/26 03:48:51;;;;;;;3.08;2.20;;;23.30;93.80;;;;;;4954140;29;20061;-76
2022/06/26 03:51:17;;;;;;;3.28;1.75;;;23.30;94.00;;;;;;4953212;29;20055;-77
2022/06/26 03:53:43;;;;;;;5.05;1.77;;;23.30;94.10;;;;;;4954858;29;20028;-76
2022/06/26 03:56:09;;;;;;;2.95;1.77;;;23.30;94.20;;;;;;4954624;29;20456;-77
2022/06/26 03:58:34;;;;;;;4.45;1.60;;;23.20;94.30;;;;;;4954528;29;20406;-76
2022/06/26 04:01:00;;;;;;;2.65;1.90;;;23.30;94.40;;;;;;4937116;29;20031;-76
2022/06/26 04:03:26;;;;;;;2.83;1.60;;;23.30;94.20;;;;;;4954664;29;20379;-77
2022/06/26 04:05:52;;;;;;;3.75;1.90;;;23.20;94.60;;;;;;4954868;29;20553;-77
2022/06/26 04:08:19;;;;;;;4.72;2.03;;;23.20;94.40;;;;;;4937389;29;20556;-77
2022/06/26 04:10:45;;;;;;;4.35;1.67;;;23.30;94.40;;;;;;4937208;29;20028;-76
2022/06/26 04:13:12;;;;;;;3.05;1.83;;;23.30;94.50;;;;;;4954474;28;20075;-78
2022/06/26 04:15:39;;;;;;;2.45;2.25;;;23.30;95.00;;;;;;4958002;29;20032;-76
2022/06/26 04:18:06;;;;;;;1.70;1.60;;;23.30;95.60;;;;;;4958277;29;20035;-77
2022/06/26 04:20:35;;;;;;;1.90;1.80;;;23.10;96.40;;;;;;4950356;29;20020;-76
2022/06/26 04:23:04;;;;;;;2.33;2.13;;;23.00;96.40;;;;;;4946590;29;20031;-77
2022/06/26 04:25:32;;;;;;;1.98;1.63;;;23.00;96.70;;;;;;4958065;29;20031;-78
2022/06/26 04:27:58;;;;;;;3.90;2.10;;;23.00;96.70;;;;;;4957873;29;20035;-76
2022/06/26 04:30:24;;;;;;;1.77;1.67;;;23.00;96.80;;;;;;4957901;29;20104;-76
2022/06/26 04:32:50;;;;;;;3.42;1.80;;;23.10;96.90;;;;;;4940541;29;20058;-77
2022/06/26 04:35:16;;;;;;;2.35;2.15;;;23.10;97.00;;;;;;4957826;29;20023;-77
2022/06/26 04:37:43;;;;;;;2.83;2.05;;;23.20;96.90;;;;;;4940607;29;20378;-77
2022/06/26 04:40:11;;;;;;;4.10;2.08;;;23.20;97.00;;;;;;4957908;29;20432;-77
2022/06/26 04:42:37;;;;;;;3.10;2.17;;;23.20;97.10;;;;;;4957761;29;20027;-77
2022/06/26 04:45:04;;;;;;;2.60;1.80;;;23.20;97.20;;;;;;4957581;29;20028;-76
2022/06/26 04:47:30;;;;;;;1.65;1.50;;;23.20;97.10;;;;;;4957488;29;20158;-77
2022/06/26 04:49:55;;;;;;;4.47;1.88;;;23.10;97.30;;;;;;4957455;29;20102;-76
2022/06/26 04:52:21;;;;;;;1.98;1.70;;;23.30;97.20;;;;;;4957528;29;20031;-77
2022/06/26 04:54:47;;;;;;;1.95;1.80;;;23.30;97.50;;;;;;4957464;29;20008;-77
2022/06/26 04:57:13;;;;;;;1.92;1.83;;;23.30;97.40;;;;;;4957397;29;20039;-77
2022/06/26 04:59:39;;;;;;;3.90;1.90;;;23.30;97.90;;;;;;4940121;29;20124;-76
2022/06/26 05:02:06;;;;;;;3.40;1.80;;;23.30;97.60;;;;;;4957321;29;20082;-77
2022/06/26 05:04:32;;;;;;;3.15;1.85;;;23.30;97.80;;;;;;4957529;29;20537;-76
2022/06/26 05:06:58;;;;;;;3.40;1.95;;;23.30;98.00;;;;;;4954661;29;20035;-77
2022/06/26 05:09:25;;;;;;;2.25;2.05;;;23.30;98.00;;;;;;4920894;29;20493;-77
2022/06/26 05:11:54;;;;;;;4.90;2.05;;;23.30;98.00;;;;;;4938023;29;20030;-77
2022/06/26 05:14:20;;;;;;;4.53;2.38;;;23.30;97.90;;;;;;4937840;29;20020;-77
2022/06/26 05:16:46;;;;;;;5.90;2.10;;;23.40;98.20;;;;;;4938131;29;20038;-77
2022/06/26 05:19:12;;;;;;;4.00;2.20;;;23.40;98.30;;;;;;4937712;29;20110;-76
2022/06/26 05:21:38;;;;;;;4.95;1.98;;;23.40;98.30;;;;;;4937806;29;20530;-76
2022/06/26 05:24:04;;;;;;;4.32;2.15;;;23.50;98.30;;;;;;4937670;29;20024;-76
2022/06/26 05:26:30;;;;;;;2.10;1.90;;;23.50;98.40;;;;;;4936712;29;20059;-76
2022/06/26 05:28:56;;;;;;;6.97;2.53;;;23.60;98.10;;;;;;4937747;29;20059;-77
2022/06/26 05:31:22;;;;;;;1.90;1.80;;;23.70;98.00;;;;;;4937686;29;20032;-77
2022/06/26 05:33:48;;;;;;;5.72;2.10;;;23.70;98.10;;;;;;4937513;29;20110;-76
2022/06/26 05:36:14;;;;;;;2.90;2.00;;;23.80;97.70;;;;;;4937379;29;20067;-76
2022/06/26 05:38:40;;;;;;;4.32;2.13;;;23.80;97.70;;;;;;4937592;29;20031;-77
2022/06/26 05:41:06;;;;;;;3.45;2.03;;;23.90;97.50;;;;;;4920415;29;20024;-78
2022/06/26 05:43:32;;;;;;;3.50;1.85;;;24.00;97.70;;;;;;4937123;29;20394;-76
2022/06/26 05:45:58;;;;;;;2.03;1.83;;;24.00;97.90;;;;;;4936572;29;20426;-76
2022/06/26 05:48:24;;;;;;;2.83;2.03;;;24.10;98.20;;;;;;4936853;29;20032;-77
2022/06/26 05:50:51;;;;;;;4.03;2.25;;;24.10;98.40;;;;;;4920000;29;20028;-76
2022/06/26 05:53:17;;;;;;;2.22;2.05;;;24.20;98.60;;;;;;4937319;29;20028;-76
2022/06/26 05:55:43;;;;;;;3.33;2.10;;;24.20;97.90;;;;;;4937260;29;20028;-77
2022/06/26 05:58:09;;;;;;;2.47;2.10;;;24.30;98.90;;;;;;4920109;29;20130;-77
2022/06/26 06:00:35;;;;;;;2.83;2.25;;;24.30;98.70;;;;;;4937189;29;20045;-76
2022/06/26 06:03:02;;;;;;;3.60;2.30;;;24.40;98.20;;;;;;4937000;29;20591;-76
2022/06/26 06:05:28;;;;;;;3.60;2.10;;;24.40;97.60;;;;;;4937191;29;20051;-76
2022/06/26 06:07:54;;;;;;;5.32;2.10;;;24.50;96.40;;;;;;4936857;29;20055;-77
2022/06/26 06:10:22;;;;;;;3.35;1.80;;;24.60;97.20;;;;;;4937024;29;20031;-76
2022/06/26 06:12:48;;;;;;;5.05;1.88;;;24.60;96.30;;;;;;4920069;29;20035;-76
2022/06/26 06:15:14;;;;;;;2.13;1.92;;;24.70;96.50;;;;;;4937005;29;20047;-77
2022/06/26 06:17:40;;;;;;;4.05;2.10;;;24.80;96.20;;;;;;4935587;29;20078;-77
2022/06/26 06:20:15;;;;;;;3.10;2.85;;;24.80;96.10;;;;;;4944700;29;20035;-76
2022/06/26 06:22:44;;;;;;;5.70;1.80;;;24.90;94.70;;;;;;4955696;29;20110;-76
2022/06/26 06:25:10;;;;;;;3.75;2.30;;;24.90;94.60;;;;;;4950843;29;20078;-76
2022/06/26 06:27:36;;;;;;;4.32;1.98;;;24.90;94.70;;;;;;4919506;29;20031;-76
2022/06/26 06:30:05;;;;;;;8.48;2.90;;;25.00;95.20;;;;;;4919517;29;20484;-76
2022/06/26 06:32:30;;;;;;;2.95;2.22;;;25.00;94.80;;;;;;4936585;29;20016;-77
2022/06/26 06:34:56;;;;;;;3.17;2.05;;;25.00;94.70;;;;;;4936532;29;20390;-76
2022/06/26 06:37:22;;;;;;;3.17;2.05;;;25.10;95.40;;;;;;4935736;29;20402;-76
2022/06/26 06:39:48;;;;;;;5.18;2.05;;;25.20;95.50;;;;;;4936513;29;20176;-76
2022/06/26 06:42:13;;;;;;;6.05;1.92;;;25.20;95.90;;;;;;4936447;29;20028;-76
2022/06/26 06:44:39;;;;;;;2.00;1.80;;;25.30;95.20;;;;;;4936499;29;20034;-77
2022/06/26 06:47:06;;;;;;;2.72;2.10;;;25.30;94.40;;;;;;4936367;29;20035;-76
2022/06/26 06:49:32;;;;;;;2.95;2.30;;;25.30;93.90;;;;;;4936199;29;20019;-77
2022/06/26 06:51:58;;;;;;;5.82;2.65;;;25.30;93.50;;;;;;4936308;29;20039;-76
2022/06/26 06:54:25;;;;;;;5.25;2.33;;;25.40;93.40;;;;;;4919161;29;20028;-76
2022/06/26 06:56:51;;;;;;;3.28;2.30;;;25.40;93.70;;;;;;4934945;29;20381;-77
2022/06/26 06:59:17;;;;;;;4.53;2.10;;;25.50;93.60;;;;;;4936414;29;20028;-76
2022/06/26 07:01:43;;;;;;;4.50;2.15;;;25.50;93.60;;;;;;4936251;29;20434;-77
2022/06/26 07:04:11;;;;;;;2.53;2.17;;;25.50;93.50;;;;;;4936199;29;20083;-77
2022/06/26 07:06:37;;;;;;;7.43;3.15;;;25.60;93.30;;;;;;4935949;29;20103;-77
2022/06/26 07:09:03;;;;;;;3.65;2.30;;;25.60;93.10;;;;;;4954850;29;20031;-77
2022/06/26 07:11:29;;;;;;;4.13;2.60;;;25.70;93.20;;;;;;4937800;29;20020;-77
2022/06/26 07:13:55;;;;;;;4.55;2.30;;;25.70;92.30;;;;;;4955117;29;20028;-77
2022/06/26 07:16:21;;;;;;;3.80;1.90;;;25.80;92.50;;;;;;4937750;29;20081;-76
2022/06/26 07:18:46;;;;;;;4.97;2.10;;;25.80;92.40;;;;;;4937911;29;20073;-77
2022/06/26 07:21:13;;;;;;;5.95;2.65;;;25.80;92.20;;;;;;4954960;29;20027;-77
2022/06/26 07:23:39;;;;;;;5.03;2.13;;;25.90;91.70;;;;;;4954916;29;20034;-77
2022/06/26 07:26:05;;;;;;;4.97;2.65;;;25.90;92.00;;;;;;4937909;29;20066;-77
2022/06/26 07:28:31;;;;;;;2.28;2.15;;;26.00;92.30;;;;;;4937480;29;20031;-77
2022/06/26 07:30:57;;;;;;;4.20;1.73;;;26.10;91.20;;;;;;4954773;29;20035;-76
2022/06/26 07:36:07;;;;;;;2.70;2.03;;;26.10;91.40;;;;;;4954471;29;20050;-77
2022/06/26 07:38:33;;;;;;;3.22;1.98;;;26.20;91.10;;;;;;4939557;29;20032;-76
2022/06/26 07:40:59;;;;;;;3.38;1.88;;;26.20;91.00;;;;;;4935617;29;20024;-76
2022/06/26 07:43:25;;;;;;;2.35;1.67;;;26.30;90.80;;;;;;4935604;29;20474;-77
2022/06/26 07:45:50;;;;;;;4.25;2.08;;;26.40;91.00;;;;;;4918417;29;20066;-77
2022/06/26 07:48:16;;;;;;;3.38;1.90;;;26.50;90.80;;;;;;4935494;29;20043;-77
2022/06/26 07:50:42;;;;;;;4.57;1.80;;;26.50;90.80;;;;;;4939169;29;20020;-76
2022/06/26 07:53:08;;;;;;;6.32;2.10;;;26.60;91.10;;;;;;4922445;29;20111;-77
2022/06/26 07:55:34;;;;;;;8.52;1.85;;;26.60;91.50;;;;;;4939631;29;20015;-77
2022/06/26 07:58:00;;;;;;;2.83;1.88;;;26.60;91.30;;;;;;4939481;29;20051;-76
2022/06/26 08:00:26;;;;;;;3.33;1.70;;;26.70;90.50;;;;;;4939359;29;20035;-76
2022/06/26 08:02:52;;;;;;;3.15;1.98;;;26.70;89.60;;;;;;4939408;29;20042;-76
2022/06/26 08:05:18;;;;;;;6.18;1.98;;;26.70;89.70;;;;;;4939462;29;20059;-77
2022/06/26 08:07:44;;;;;;;4.85;2.22;;;26.80;88.50;;;;;;4930720;29;20082;-77
2022/06/26 08:10:10;;;;;;;4.35;2.05;;;26.80;89.40;;;;;;4958548;29;20034;-77
2022/06/26 08:12:36;;;;;;;3.33;1.60;;;26.80;89.00;;;;;;4958281;29;20023;-77
2022/06/26 08:15:02;;;;;;;2.85;1.65;;;26.90;88.60;;;;;;4958479;29;20391;-77
2022/06/26 08:17:28;;;;;;;5.28;2.22;;;27.00;90.00;;;;;;4941056;29;20036;-77
2022/06/26 08:19:54;;;;;;;8.07;1.90;;;27.00;89.20;;;;;;4958390;29;20027;-77
2022/06/26 08:22:20;;;;;;;2.10;1.73;;;27.10;89.50;;;;;;4949573;29;20031;-76
2022/06/26 08:24:46;;;;;;;2.20;2.00;;;27.20;90.30;;;;;;4953647;29;20125;-77
2022/06/26 08:27:12;;;;;;;4.65;2.13;;;27.20;90.20;;;;;;4921641;29;20494;-77
2022/06/26 08:29:38;;;;;;;2.45;1.92;;;27.20;89.70;;;;;;4936478;29;20075;-76
2022/06/26 08:32:04;;;;;;;1.90;1.80;;;27.20;90.50;;;;;;4937054;29;20027;-77
2022/06/26 08:34:30;;;;;;;4.20;2.28;;;27.30;91.30;;;;;;4937072;29;20032;-77
2022/06/26 08:36:56;;;;;;;7.15;2.80;;;27.30;90.50;;;;;;4936901;29;20097;-76
2022/06/26 08:39:22;;;;;;;3.38;2.55;;;27.40;91.20;;;;;;4937236;29;20028;-77
2022/06/26 08:41:54;;;;;;;4.88;2.20;;;27.40;90.60;;;;;;4920264;29;20480;-76
2022/06/26 08:44:21;;;;;;;2.75;2.22;;;27.40;90.30;;;;;;4920121;29;20020;-76
2022/06/26 08:46:47;;;;;;;4.13;2.17;;;27.50;91.10;;;;;;4936014;29;20024;-77
2022/06/26 08:49:16;;;;;;;4.15;2.45;;;27.80;91.70;;;;;;4936034;29;20043;-76
2022/06/26 08:51:45;;;;;;;3.80;2.47;;;27.80;91.30;;;;;;4920074;29;20431;-77
2022/06/26 08:54:14;;;;;;;5.57;2.83;;;27.90;90.90;;;;;;4937095;29;20028;-76
2022/06/26 08:56:43;;;;;;;5.07;2.45;;;27.90;91.20;;;;;;4937084;29;20031;-76
2022/06/26 08:59:13;;;;;;;4.78;2.67;;;27.80;90.40;;;;;;4936938;29;20055;-77
2022/06/26 09:01:40;;;;;;;4.00;2.10;;;27.80;90.50;;;;;;4936603;29;20434;-77
2022/06/26 09:04:07;;;;;;;3.15;2.88;;;27.80;91.10;;;;;;4936998;29;20110;-76
2022/06/26 09:06:37;;;;;;;5.00;3.03;;;27.80;91.50;;;;;;4936825;29;20031;-77
2022/06/26 09:09:17;;;;;;;3.97;2.55;;;27.80;90.80;;;;;;4936718;29;20059;-77
2022/06/26 09:11:44;;;;;;;5.20;2.35;;;27.80;90.90;;;;;;4919469;29;20386;-76
2022/06/26 09:14:11;;;;;;;3.33;2.47;;;27.90;90.70;;;;;;4936876;29;20024;-76
2022/06/26 09:16:39;;;;;;;4.72;2.30;;;27.90;90.10;;;;;;4936758;29;20368;-76
2022/06/26 09:19:18;;;;;;;3.72;2.50;;;27.90;88.30;;;;;;4919572;29;20031;-77
2022/06/26 09:21:45;;;;;;;6.20;2.40;;;28.00;89.70;;;;;;4919314;29;20261;-76
2022/06/26 09:24:13;;;;;;;3.47;2.38;;;28.00;90.60;;;;;;4936579;29;20034;-76
2022/06/26 09:26:39;;;;;;;5.85;2.63;;;28.10;89.50;;;;;;4936453;29;20031;-76
2022/06/26 09:29:13;;;;;;;6.28;2.95;;;28.20;90.90;;;;;;4937099;29;20098;-77
2022/06/26 09:31:40;;;;;;;6.93;3.20;;;28.40;91.20;;;;;;4937304;29;20103;-77
2022/06/26 09:34:07;;;;;;;4.55;2.60;;;28.40;90.90;;;;;;4937697;29;20484;-76
2022/06/26 09:36:33;;;;;;;3.47;2.42;;;28.60;89.50;;;;;;4937145;29;20525;-76
2022/06/26 09:38:59;;;;;;;6.18;2.80;;;28.60;90.20;;;;;;4937808;29;20028;-76
2022/06/26 09:41:34;;;;;;;7.55;3.38;;;28.70;90.00;;;;;;4936829;29;20058;-77
2022/06/26 09:43:59;;;;;;;4.22;2.47;;;28.80;88.50;;;;;;4936702;29;20079;-77
2022/06/26 09:46:30;;;;;;;5.68;2.97;;;29.00;90.00;;;;;;4919775;29;20028;-76
2022/06/26 09:48:58;;;;;;;5.85;3.33;;;29.00;88.50;;;;;;4936927;29;20023;-77
2022/06/26 09:51:25;;;;;;;6.32;2.67;;;29.10;87.60;;;;;;4919048;29;20028;-77
2022/06/26 09:53:51;;;;;;;11.30;2.40;;;29.10;89.10;;;;;;4936323;29;20051;-77
2022/06/26 09:56:17;;;;;;;3.22;2.92;;;29.10;86.10;;;;;;4935153;29;20055;-76
2022/06/26 09:58:44;;;;;;;5.00;3.15;;;29.10;85.40;;;;;;4918479;29;20047;-76
2022/06/26 10:06:43;;;;;;;2.83;2.55;;;29.10;84.00;;;;;;4937091;29;20087;-73
2022/06/26 10:09:10;;;;;;;4.30;2.00;;;29.10;82.30;;;;;;4954760;29;20032;-76
2022/06/26 10:11:38;;;;;;;2.70;2.13;;;29.10;81.70;;;;;;4955396;28;20385;-76
2022/06/26 10:14:15;;;;;;;2.50;2.10;;;29.10;80.10;;;;;;4956057;29;20020;-76
2022/06/26 10:17:09;;;;;;;6.68;2.40;;;29.20;81.40;;;;;;4936664;29;20579;-76
2022/06/26 10:19:44;;;;;;;2.22;2.00;;;29.30;80.80;;;;;;4910198;29;20028;-76
2022/06/26 10:22:11;;;;;;;2.80;2.33;;;29.30;77.20;;;;;;4932319;29;20505;-77
2022/06/26 10:25:07;;;;;;;3.20;2.72;;;29.40;79.10;;;;;;4949713;29;20622;-77
2022/06/26 10:27:34;;;;;;;2.30;2.10;;;29.50;80.40;;;;;;4937847;29;20489;-77
2022/06/26 10:30:13;;;;;;;4.03;2.55;;;29.60;81.30;;;;;;4918655;29;20028;-77
2022/06/26 10:32:40;;;;;;;4.55;2.80;;;29.70;83.00;;;;;;4936534;29;20087;-77
2022/06/26 10:35:06;;;;;;;4.80;3.22;;;29.90;85.70;;;;;;4936145;29;20035;-76
2022/06/26 10:37:58;;;;;;;5.65;2.90;;;30.00;85.80;;;;;;4935005;29;20043;-76
2022/06/26 10:43:15;;;;;;;6.07;3.13;;;30.00;84.40;;;;;;4936728;29;20051;-76
2022/06/26 10:45:42;;;;;;;3.10;2.72;;;30.00;84.20;;;;;;4936322;29;20034;-77
2022/06/26 10:48:19;;;;;;;4.88;2.67;;;30.10;85.20;;;;;;4936095;29;20031;-77
2022/06/26 10:51:01;;;;;;;4.53;2.88;;;30.30;83.60;;;;;;4936101;29;20062;-73
2022/06/26 10:53:36;;;;;;;5.05;2.50;;;30.40;79.50;;;;;;4936162;29;20551;-76
2022/06/26 10:56:07;;;;;;;4.75;2.58;;;30.50;79.30;;;;;;4935892;29;20366;-76
2022/06/26 10:58:42;;;;;;;5.30;2.20;;;30.70;75.10;;;;;;4935660;29;20062;-76
2022/06/26 11:01:10;;;;;;;3.28;2.38;;;30.80;73.70;;;;;;4935956;29;20043;-76
2022/06/26 11:03:38;;;;;;;1.70;1.60;;;30.90;72.50;;;;;;4918775;29;20434;-76
2022/06/26 11:06:15;;;;;;;5.47;1.95;;;30.90;70.30;;;;;;4918893;29;20028;-76
2022/06/26 11:08:51;;;;;;;4.25;2.40;;;31.00;76.90;;;;;;4935846;29;20024;-76
2022/06/26 11:11:30;;;;;;;3.25;2.63;;;31.10;77.90;;;;;;4935821;29;20426;-76
2022/06/26 11:13:57;;;;;;;7.75;3.40;;;31.20;77.70;;;;;;4935729;29;20027;-75
2022/06/26 11:16:38;;;;;;;5.78;2.90;;;31.00;80.70;;;;;;4933417;29;20418;-76
2022/06/26 11:19:07;;;;;;;4.18;3.28;;;31.00;79.30;;;;;;4935023;29;20028;-75
2022/06/26 11:21:33;;;;;;;4.80;2.50;;;31.00;79.10;;;;;;4935845;29;20589;-77
2022/06/26 11:24:00;;;;;;;7.97;2.80;;;31.10;80.20;;;;;;4935818;29;20039;-77
2022/06/26 11:26:26;;;;;;;6.25;3.05;;;31.10;79.60;;;;;;4935889;29;20030;-78
2022/06/26 11:28:58;;;;;;;5.70;2.90;;;31.20;79.20;;;;;;4935857;29;20028;-77
2022/06/26 11:31:32;;;;;;;5.22;2.28;;;31.30;79.50;;;;;;4935465;29;20031;-77
2022/06/26 11:34:12;;;;;;;5.43;2.60;;;31.40;77.00;;;;;;4935743;29;20090;-77
2022/06/26 11:36:56;;;;;;;7.07;2.72;;;31.60;77.20;;;;;;4934709;29;20055;-77
2022/06/26 11:39:23;;;;;;;8.95;2.53;;;31.70;74.80;;;;;;4914826;29;20115;-77
2022/06/26 11:41:49;;;;;;;3.92;1.75;;;31.80;73.80;;;;;;4916254;29;20046;-77
2022/06/26 11:44:15;;;;;;;4.22;2.17;;;31.90;74.20;;;;;;4916479;29;20032;-76
2022/06/26 11:46:41;;;;;;;4.38;2.50;;;32.00;73.80;;;;;;4937566;29;20039;-77
2022/06/26 11:49:10;;;;;;;4.25;2.17;;;32.30;71.30;;;;;;4950026;29;20024;-77
2022/06/26 11:51:37;;;;;;;5.30;2.30;;;32.40;71.20;;;;;;4917852;29;20550;-77
2022/06/26 11:54:06;;;;;;;8.13;2.25;;;32.50;67.90;;;;;;4917427;29;20079;-77
2022/06/26 11:56:32;;;;;;;3.55;2.28;;;32.60;69.00;;;;;;4934890;29;20497;-77
2022/06/26 11:58:59;;;;;;;5.25;2.30;;;32.60;69.10;;;;;;4917669;29;20032;-77
2022/06/26 12:01:36;;;;;;;8.75;2.58;;;32.80;68.20;;;;;;4933745;29;20125;-76
2022/06/26 12:04:03;;;;;;;11.57;2.28;;;32.80;69.00;;;;;;4931362;29;20027;-76
2022/06/26 12:06:34;;;;;;;6.22;2.55;;;32.90;68.80;;;;;;4948633;29;20044;-76
2022/06/26 12:09:02;;;;;;;5.60;2.50;;;33.00;66.30;;;;;;4932747;29;20035;-76
2022/06/26 12:11:28;;;;;;;6.45;2.85;;;33.20;62.80;;;;;;4917075;29;20111;-76
2022/06/26 12:13:57;;;;;;;4.32;1.70;;;33.30;64.30;;;;;;4933114;29;20273;-76
2022/06/26 12:16:23;;;;;;;8.73;2.40;;;33.30;61.20;;;;;;4946850;29;20028;-76
2022/06/26 12:18:49;;;;;;;6.70;2.17;;;33.30;61.70;;;;;;4932186;29;20035;-73
2022/06/26 12:21:20;;;;;;;7.70;2.35;;;33.40;60.00;;;;;;4932838;29;20102;-76
2022/06/26 12:23:48;;;;;;;6.40;1.80;;;33.60;58.50;;;;;;4939115;29;20040;-76
2022/06/26 12:26:18;;;;;;;9.45;2.03;;;33.60;60.00;;;;;;4932305;29;20023;-76
2022/06/26 12:28:48;;;;;;;6.00;2.58;;;33.60;59.10;;;;;;4932278;29;20405;-76
2022/06/26 12:31:15;;;;;;;13.60;2.30;;;33.70;59.10;;;;;;4930843;29;20095;-76
2022/06/26 12:33:41;;;;;;;6.65;2.40;;;33.90;59.70;;;;;;4930863;29;20028;-76
2022/06/26 12:36:07;;;;;;;6.50;2.03;;;34.10;58.70;;;;;;4933121;29;20062;-75
2022/06/26 12:38:35;;;;;;;6.13;1.95;;;34.20;57.80;;;;;;4949477;29;20378;-75
2022/06/26 12:41:02;;;;;;;3.75;1.85;;;34.30;58.60;;;;;;4936029;29;20113;-76
2022/06/26 12:43:28;;;;;;;7.55;2.10;;;34.30;58.60;;;;;;4936103;29;20046;-76
2022/06/26 12:45:54;;;;;;;7.45;1.98;;;34.50;58.50;;;;;;4954741;29;20023;-76
2022/06/26 12:48:20;;;;;;;8.50;2.38;;;34.50;57.00;;;;;;4954555;29;20038;-76
2022/06/26 12:50:46;;;;;;;6.63;2.25;;;34.60;59.90;;;;;;4953305;29;20031;-76
2022/06/26 12:53:12;;;;;;;4.00;1.90;;;34.50;56.80;;;;;;4954892;29;20059;-76
2022/06/26 12:55:38;;;;;;;7.63;1.85;;;34.60;57.80;;;;;;4956382;29;20036;-76
2022/06/26 12:58:04;;;;;;;5.07;2.80;;;34.70;55.10;;;;;;4956121;29;20371;-76
2022/06/26 13:00:30;;;;;;;4.35;2.35;;;34.80;55.00;;;;;;4954949;29;20062;-76